Time;durP1;ratioP1;P1;durP2;ratioP2;P2;SDS_P1;SDS_P2;PMS_P1;PMS_P2;Temp;Humidity;BMP_temperature;BMP_pressure;BME280_temperature;BME280_humidity;BME280_pressure;Samples;Min_cycle;Max_cycle;Signal;HPM_P1;HPM_P2
2022/08/13 00:01:20;;;;;;;1.33;1.08;;;;;;;-145.69;68.87;71103.94;5092431;28;20198;-76
2022/08/13 00:03:49;;;;;;;2.67;1.30;;;;;;;-145.69;69.24;71105.91;5092756;28;20201;-76
2022/08/13 00:06:24;;;;;;;2.47;1.05;;;;;;;-145.69;69.32;71099.94;5093318;28;20252;-77
2022/08/13 00:08:51;;;;;;;4.53;1.00;;;;;;;-145.69;70.23;71111.88;5099186;28;20552;-76
2022/08/13 00:13:59;;;;;;;1.67;1.30;;;;;;;-145.69;69.32;71095.97;5072169;28;20199;-76
2022/08/13 00:16:25;;;;;;;2.10;1.17;;;;;;;-145.69;69.81;71111.88;5073035;28;20209;-77
2022/08/13 00:18:53;;;;;;;2.67;1.10;;;;;;;-145.69;70.82;71107.91;5072936;28;20715;-77
2022/08/13 00:21:21;;;;;;;4.63;1.52;;;;;;;-145.69;69.09;71080.06;5112161;28;20602;-76
2022/08/13 00:23:54;;;;;;;5.00;1.30;;;;;;;-145.69;68.60;71066.13;5113410;28;20292;-76
2022/08/13 00:26:22;;;;;;;1.63;1.30;;;;;;;-145.69;67.72;71044.22;5113442;28;20229;-75
2022/08/13 00:28:49;;;;;;;1.65;1.23;;;;;;;-145.69;68.47;71078.06;5113472;28;20274;-77
2022/08/13 00:31:16;;;;;;;1.63;1.33;;;;;;;-145.69;68.32;71084.03;5113386;28;20231;-76
2022/08/13 00:33:43;;;;;;;1.10;1.00;;;;;;;-145.69;70.06;71111.88;5092956;28;20563;-76
2022/08/13 00:36:12;;;;;;;2.10;1.30;;;;;;;-145.69;70.28;71103.94;5092915;28;20645;-76
2022/08/13 00:38:40;;;;;;;3.10;1.30;;;;;;;-145.69;70.84;71117.84;5092739;28;20202;-77
2022/08/13 00:41:13;;;;;;;7.65;1.30;;;;;;;-145.69;71.50;71127.81;5093139;28;20225;-76
2022/08/13 00:43:39;;;;;;;1.40;1.30;;;;;;;-145.69;71.20;71121.84;5095263;28;20255;-75
2022/08/13 00:46:06;;;;;;;1.43;1.20;;;;;;;-145.69;71.35;71141.72;5113204;28;20233;-75
2022/08/13 00:48:43;;;;;;;1.50;1.02;;;;;;;-145.69;73.15;71155.66;5113168;28;20202;-76
2022/08/13 00:51:13;;;;;;;7.40;1.40;;;;;;;-145.69;73.92;71165.59;5113133;28;20204;-76
2022/08/13 00:53:40;;;;;;;1.20;1.10;;;;;;;-145.69;72.96;71141.72;5113285;28;20201;-76
2022/08/13 00:56:09;;;;;;;1.33;1.07;;;;;;;-145.69;72.19;71135.75;5111654;28;20253;-76
2022/08/13 00:58:36;;;;;;;9.17;2.47;;;;;;;-145.69;72.71;71135.75;5113168;28;20236;-77
2022/08/13 01:01:05;;;;;;;1.53;1.20;;;;;;;-145.69;72.70;71137.75;5112986;28;20209;-76
2022/08/13 01:03:34;;;;;;;4.03;1.20;;;;;;;-145.69;74.30;71163.63;5111264;28;20199;-76
2022/08/13 01:06:03;;;;;;;1.67;1.20;;;;;;;-145.69;74.37;71169.59;5112630;28;20644;-76
2022/08/13 01:08:34;;;;;;;1.83;1.20;;;;;;;-145.69;75.89;71193.47;5105492;28;20193;-76
2022/08/13 01:11:04;;;;;;;1.30;1.00;;;;;;;-145.69;76.54;71205.41;5092174;28;20668;-77
2022/08/13 01:13:33;;;;;;;3.80;1.40;;;;;;;-145.69;77.80;71211.38;5091417;28;20205;-77
2022/08/13 01:16:01;;;;;;;7.47;1.30;;;;;;;-145.69;77.26;71201.41;5091347;28;20321;-76
2022/08/13 01:18:28;;;;;;;3.40;1.27;;;;;;;-145.69;76.42;71167.59;5092743;28;20225;-76
2022/08/13 01:21:02;;;;;;;3.13;1.23;;;;;;;-145.69;74.76;71151.69;5103442;28;20206;-77
2022/08/13 01:23:31;;;;;;;1.43;1.27;;;;;;;-145.69;75.54;71149.69;5112759;28;20198;-76
2022/08/13 01:25:59;;;;;;;3.90;1.23;;;;;;;-145.69;75.13;71167.59;5113567;28;20197;-74
2022/08/13 01:28:27;;;;;;;1.37;1.13;;;;;;;-145.69;75.29;71165.59;5116022;28;20648;-77
2022/08/13 01:30:55;;;;;;;3.00;1.30;;;;;;;-145.69;76.64;71167.59;5116633;28;20231;-76
2022/08/13 01:33:22;;;;;;;2.53;1.30;;;;;;;-145.69;76.38;71167.59;5102701;28;20653;-75
2022/08/13 01:35:50;;;;;;;2.63;1.50;;;;;;;-145.69;77.37;71187.50;5094934;28;20225;-77
2022/08/13 01:38:19;;;;;;;3.03;1.33;;;;;;;-145.69;77.50;71195.47;5084397;28;20206;-75
2022/08/13 01:40:48;;;;;;;2.73;1.20;;;;;;;-145.69;78.45;71187.50;5075435;28;20211;-77
2022/08/13 01:43:15;;;;;;;3.30;1.47;;;;;;;-145.69;78.53;71191.47;5075548;28;20206;-75
2022/08/13 01:45:44;;;;;;;2.20;1.20;;;;;;;-145.69;78.99;71191.47;5106414;28;20201;-76
2022/08/13 01:50:54;;;;;;;1.63;1.33;;;;;;;-145.69;79.83;71199.44;5116053;28;20212;-78
2022/08/13 01:53:21;;;;;;;6.93;1.90;;;;;;;-145.69;79.34;71197.44;5115044;28;20201;-77
2022/08/13 01:55:54;;;;;;;2.77;1.20;;;;;;;-145.69;79.46;71185.50;5115746;28;20225;-76
2022/08/13 01:58:23;;;;;;;2.90;1.50;;;;;;;-145.69;80.79;71203.41;5096834;28;20495;-77
2022/08/13 02:00:53;;;;;;;3.27;1.67;;;;;;;-145.69;81.27;71227.28;5095751;28;20228;-76
2022/08/13 02:03:20;;;;;;;1.50;1.37;;;;;;;-145.69;81.73;71231.28;5095807;28;20202;-77
2022/08/13 02:05:48;;;;;;;2.47;1.40;;;;;;;-145.69;81.76;71239.22;5096472;28;20320;-76
2022/08/13 02:08:20;;;;;;;2.00;1.30;;;;;;;-145.69;83.31;71257.13;5095273;28;20205;-77
2022/08/13 02:10:50;;;;;;;4.70;1.40;;;;;;;-145.69;83.70;71255.16;5095489;28;20237;-76
2022/08/13 02:13:20;;;;;;;1.70;1.30;;;;;;;-145.69;83.76;71267.09;5095550;28;20205;-77
2022/08/13 02:15:48;;;;;;;2.37;1.57;;;;;;;-145.69;85.07;71286.97;5112109;28;20221;-77
2022/08/13 02:18:18;;;;;;;1.70;1.60;;;;;;;-145.69;86.48;71283.00;5115606;28;20204;-76
2022/08/13 02:20:45;;;;;;;2.00;1.37;;;;;;;-145.69;87.03;71286.97;5101865;28;20222;-76
2022/08/13 02:23:20;;;;;;;2.63;1.50;;;;;;;-145.69;87.47;71302.91;5095225;28;20285;-76
2022/08/13 02:25:46;;;;;;;2.93;1.80;;;;;;;-145.69;88.51;71306.88;5095121;28;20204;-76
2022/08/13 02:28:15;;;;;;;5.17;1.93;;;;;;;-145.69;87.86;71277.03;5094789;28;20198;-76
2022/08/13 02:30:43;;;;;;;2.13;1.33;;;;;;;-145.69;86.93;71275.03;5107114;28;20555;-76
2022/08/13 02:33:10;;;;;;;3.60;1.60;;;;;;;-145.69;86.12;71251.16;5115171;28;20197;-76
2022/08/13 02:35:37;;;;;;;3.50;1.60;;;;;;;-145.69;85.29;71239.22;5114934;28;20221;-77
2022/08/13 02:38:04;;;;;;;6.03;1.60;;;;;;;-145.69;85.60;71251.16;5115333;28;20254;-77
2022/08/13 02:43:17;;;;;;;3.80;1.60;;;;;;;-145.69;87.04;71275.03;5095888;28;20201;-76
2022/08/13 02:45:45;;;;;;;2.47;1.50;;;;;;;-145.69;87.75;71283.00;5094586;28;20675;-76
2022/08/13 02:48:11;;;;;;;4.53;1.90;;;;;;;-145.69;87.87;71275.03;5094506;28;20288;-76
2022/08/13 02:50:41;;;;;;;5.83;1.97;;;;;;;-145.69;88.17;71290.97;5094766;28;20198;-76
2022/08/13 02:53:09;;;;;;;3.30;1.90;;;;;;;-145.69;88.87;71292.94;5094621;28;20202;-76
2022/08/13 02:55:36;;;;;;;1.80;1.53;;;;;;;-145.69;89.20;71290.97;5112570;28;20218;-76
2022/08/13 02:58:04;;;;;;;5.83;1.70;;;;;;;-145.69;89.73;71298.94;5114755;28;20197;-76
2022/08/13 03:00:32;;;;;;;2.93;1.70;;;;;;;-145.69;90.28;71294.94;5114918;28;20197;-76
2022/08/13 03:02:59;;;;;;;3.77;1.80;;;;;;;-145.69;88.07;71239.22;5096126;28;20199;-75
2022/08/13 03:05:29;;;;;;;4.80;2.20;;;;;;;-145.69;86.93;71213.38;5093734;28;20233;-76
2022/08/13 03:07:55;;;;;;;2.37;1.70;;;;;;;-145.69;86.29;71213.38;5094050;28;20275;-75
2022/08/13 03:10:23;;;;;;;4.37;2.10;;;;;;;-145.69;86.45;71207.38;5094044;28;20668;-76
2022/08/13 03:12:58;;;;;;;4.63;1.80;;;;;;;-145.69;87.48;71223.31;5106460;28;20284;-76
2022/08/13 03:15:26;;;;;;;1.83;1.67;;;;;;;-145.69;88.33;71231.28;5114365;28;20651;-76
2022/08/13 03:17:54;;;;;;;3.00;1.80;;;;;;;-145.69;89.09;71257.13;5114445;28;20193;-76
2022/08/13 03:20:21;;;;;;;2.77;1.80;;;;;;;-145.69;88.31;71217.34;5112544;28;20205;-75
2022/08/13 03:22:51;;;;;;;3.80;1.80;;;;;;;-145.69;87.98;71213.38;5094054;28;20198;-76
2022/08/13 03:25:19;;;;;;;4.97;1.80;;;;;;;-145.69;87.30;71211.38;5093806;28;20202;-77
2022/08/13 03:27:46;;;;;;;7.70;2.07;;;;;;;-145.69;87.10;71199.44;5093825;28;20206;-77
2022/08/13 03:30:14;;;;;;;3.33;1.90;;;;;;;-145.69;88.72;71219.34;5089575;28;20198;-76
2022/08/13 03:32:42;;;;;;;2.43;2.00;;;;;;;-145.69;88.63;71223.31;5113170;28;20566;-76
2022/08/13 03:35:12;;;;;;;6.17;1.90;;;;;;;-145.69;88.46;71205.41;5113978;28;20201;-76
2022/08/13 03:37:40;;;;;;;5.83;2.10;;;;;;;-145.69;87.10;71191.47;5113693;28;20691;-76
2022/08/13 03:40:08;;;;;;;2.53;1.93;;;;;;;-145.69;87.73;71187.50;5113458;28;20559;-78
2022/08/13 03:42:35;;;;;;;2.30;2.10;;;;;;;-145.69;87.12;71175.56;5112108;27;20209;-77
2022/08/13 03:45:02;;;;;;;2.93;2.30;;;;;;;-145.69;87.63;71183.50;5093680;28;20248;-76
2022/08/13 03:47:30;;;;;;;3.57;1.80;;;;;;;-145.69;87.78;71181.53;5092781;28;20659;-76
2022/08/13 03:49:58;;;;;;;2.27;1.97;;;;;;;-145.69;87.09;71167.59;5098700;28;20193;-75
2022/08/13 03:52:26;;;;;;;4.43;2.00;;;;;;;-145.69;87.90;71185.50;5113756;28;20233;-76
2022/08/13 03:54:53;;;;;;;2.60;1.80;;;;;;;-145.69;88.53;71191.47;5109759;28;20193;-77
2022/08/13 03:57:19;;;;;;;4.37;2.10;;;;;;;-145.69;88.56;71177.53;5092802;28;20719;-76
2022/08/13 03:59:46;;;;;;;4.23;1.97;;;;;;;-145.69;88.23;71183.50;5099981;28;20189;-75
2022/08/13 04:02:15;;;;;;;2.23;1.80;;;;;;;-145.69;88.94;71187.50;5113783;28;20204;-77
2022/08/13 04:04:46;;;;;;;3.07;2.07;;;;;;;-145.69;89.99;71195.47;5112656;28;20229;-78
2022/08/13 04:07:15;;;;;;;2.60;1.93;;;;;;;-145.69;89.36;71187.50;5113420;28;20197;-76
2022/08/13 04:09:43;;;;;;;6.07;2.00;;;;;;;-145.69;89.32;71189.47;5106084;28;20693;-76
2022/08/13 04:12:11;;;;;;;6.50;2.00;;;;;;;-145.69;89.05;71201.41;5093198;28;20195;-77
2022/08/13 04:14:39;;;;;;;4.93;2.17;;;;;;;-145.69;89.07;71185.50;5092363;28;20284;-77
2022/08/13 04:17:08;;;;;;;3.50;1.70;;;;;;;-145.69;88.80;71191.47;5092080;28;20324;-77
2022/08/13 04:19:36;;;;;;;3.87;1.90;;;;;;;-145.69;88.72;71191.47;5092816;28;20202;-77
2022/08/13 04:22:03;;;;;;;4.00;2.10;;;;;;;-145.69;88.87;71187.50;5103898;28;20197;-79
2022/08/13 04:24:30;;;;;;;2.47;1.90;;;;;;;-145.69;88.67;71195.47;5112511;28;20209;-76
2022/08/13 04:26:59;;;;;;;3.70;1.90;;;;;;;-145.69;88.44;71175.56;5112888;28;20197;-77
2022/08/13 04:29:25;;;;;;;2.50;1.83;;;;;;;-145.69;87.26;71157.66;5113429;28;20243;-77
2022/08/13 04:31:52;;;;;;;2.70;2.00;;;;;;;-145.69;87.49;71145.72;5113160;28;20593;-76
2022/08/13 04:34:21;;;;;;;4.93;1.90;;;;;;;-145.69;87.57;71145.72;5098591;28;20202;-77
2022/08/13 04:36:48;;;;;;;2.60;2.00;;;;;;;-145.69;87.95;71145.72;5093023;28;20236;-77
2022/08/13 04:39:14;;;;;;;5.87;2.03;;;;;;;-145.69;88.55;71157.66;5092370;28;20206;-78
2022/08/13 04:41:41;;;;;;;5.07;2.07;;;;;;;-145.69;88.43;71143.72;5091501;28;20243;-75
2022/08/13 04:44:09;;;;;;;3.27;1.90;;;;;;;-145.69;87.56;71131.78;5092765;28;20194;-76
2022/08/13 04:46:35;;;;;;;3.43;1.80;;;;;;;-145.69;88.18;71143.72;5106694;28;20197;-77
2022/08/13 04:49:01;;;;;;;2.47;2.10;;;;;;;-145.69;89.10;71161.63;5113321;28;20201;-75
2022/08/13 04:51:31;;;;;;;3.20;2.03;;;;;;;-145.69;89.01;71169.59;5113153;28;20201;-75
2022/08/13 04:53:57;;;;;;;4.97;1.73;;;;;;;-145.69;89.69;71163.63;5113023;28;20601;-77
2022/08/13 04:56:24;;;;;;;4.53;2.07;;;;;;;-145.69;89.21;71153.66;5113038;28;20584;-76
2022/08/13 04:58:50;;;;;;;3.50;2.10;;;;;;;-145.69;88.75;71157.66;5098079;28;20675;-77
2022/08/13 05:01:18;;;;;;;2.43;1.80;;;;;;;-145.69;87.50;71131.78;5096608;28;20202;-76
2022/08/13 05:03:46;;;;;;;2.50;1.60;;;;;;;-145.69;86.93;71129.78;5096595;28;20270;-77
2022/08/13 05:06:19;;;;;;;2.10;1.90;;;;;;;-145.69;86.89;71121.84;5096762;28;20197;-77
2022/08/13 05:08:45;;;;;;;1.65;1.55;;;;;;;-145.69;88.07;71141.72;5096644;28;20202;-75
2022/08/13 05:11:12;;;;;;;6.13;1.90;;;;;;;-145.69;88.89;71161.63;5116622;28;20193;-77
2022/08/13 05:13:40;;;;;;;1.58;1.48;;;;;;;-145.69;90.72;71193.47;5115672;28;20229;-78
2022/08/13 05:16:10;;;;;;;2.47;1.92;;;;;;;-145.69;91.84;71211.38;5116768;28;20205;-77
2022/08/13 05:18:44;;;;;;;1.80;1.70;;;;;;;-145.69;93.84;71255.16;5116502;27;20208;-76
2022/08/13 05:21:11;;;;;;;5.67;2.07;;;;;;;-145.69;94.57;71265.09;5113922;28;20286;-77
2022/08/13 05:23:39;;;;;;;2.57;1.90;;;;;;;-145.69;95.42;71281.00;5096293;28;20235;-75
2022/08/13 05:26:08;;;;;;;6.97;2.20;;;;;;;-145.69;95.16;71286.97;5096136;28;20198;-76
2022/08/13 05:28:35;;;;;;;2.50;1.90;;;;;;;-145.69;96.44;71296.94;5096330;28;20202;-76
2022/08/13 05:31:03;;;;;;;3.77;1.90;;;;;;;-145.69;95.55;71294.94;5096056;28;20655;-75
2022/08/13 05:33:31;;;;;;;2.03;1.80;;;;;;;-145.69;96.36;71306.88;5099564;28;20197;-76
2022/08/13 05:36:03;;;;;;;5.87;1.90;;;;;;;-145.69;96.76;71310.84;5095636;28;20202;-76
2022/08/13 05:38:32;;;;;;;2.00;1.80;;;;;;;-145.69;97.49;71306.88;5075504;28;20230;-76
2022/08/13 05:41:01;;;;;;;2.83;1.97;;;;;;;-145.69;100.00;71310.84;5075730;28;20657;-77
2022/08/13 05:43:29;;;;;;;2.27;1.90;;;;;;;-145.69;100.00;71312.84;5075852;28;20195;-76
2022/08/13 05:45:58;;;;;;;2.80;1.93;;;;;;;-145.69;100.00;71320.81;5091237;28;20198;-76
2022/08/13 05:48:25;;;;;;;2.87;1.87;;;;;;;-145.69;100.00;71310.84;5116038;28;20556;-76
2022/08/13 05:50:52;;;;;;;2.70;2.07;;;;;;;-145.69;100.00;71314.84;5116116;28;20720;-76
2022/08/13 05:53:22;;;;;;;2.97;2.10;;;;;;;-145.69;100.00;71312.84;5116569;28;20201;-76
2022/08/13 05:55:49;;;;;;;3.23;2.10;;;;;;;-145.69;100.00;71294.94;5116132;28;20200;-76
2022/08/13 05:58:17;;;;;;;3.23;1.90;;;;;;;-145.69;100.00;71283.00;5105876;27;20708;-75
2022/08/13 06:03:28;;;;;;;2.70;1.97;;;;;;;-145.69;98.66;71263.09;5095577;28;20583;-76
2022/08/13 06:05:56;;;;;;;2.83;2.20;;;;;;;-145.69;96.33;71231.28;5094857;28;20262;-76
2022/08/13 06:08:29;;;;;;;6.90;2.30;;;;;;;-145.69;95.82;71229.28;5095648;28;20206;-75
2022/08/13 06:10:57;;;;;;;1.98;1.77;;;;;;;-145.69;94.86;71215.34;5112537;28;20197;-76
2022/08/13 06:13:24;;;;;;;2.43;1.90;;;;;;;-145.69;94.13;71189.47;5115788;27;20202;-78
2022/08/13 06:15:58;;;;;;;3.07;1.70;;;;;;;-145.69;90.57;71171.56;5115768;27;20204;-77
2022/08/13 06:18:27;;;;;;;2.55;1.92;;;;;;;-145.69;90.04;71157.66;5115783;28;20332;-77
2022/08/13 06:20:55;;;;;;;2.05;1.85;;;;;;;-145.69;90.25;71139.75;5115234;28;20655;-78
2022/08/13 06:23:24;;;;;;;6.82;2.30;;;;;;;-145.69;88.33;71119.84;5074823;28;20248;-77
2022/08/13 06:25:53;;;;;;;5.82;1.80;;;;;;;-145.69;87.85;71099.94;5074697;28;20210;-77
2022/08/13 06:28:20;;;;;;;3.35;1.90;;;;;;;-145.69;86.09;71068.13;5073456;28;20207;-76
2022/08/13 06:30:49;;;;;;;1.90;1.70;;;;;;;-145.69;85.80;71038.25;5074855;28;20205;-77
2022/08/13 06:33:18;;;;;;;2.58;1.90;;;;;;;-145.69;83.69;71030.31;5082797;28;20552;-77
2022/08/13 06:35:45;;;;;;;2.55;1.80;;;;;;;-145.69;85.17;71012.41;5115448;27;20201;-76
2022/08/13 06:38:12;;;;;;;2.80;2.08;;;;;;;-145.69;84.10;71012.41;5114671;28;20251;-76
2022/08/13 06:40:42;;;;;;;3.33;1.80;;;;;;;-145.69;83.12;70980.56;5114920;27;20193;-76
2022/08/13 06:43:10;;;;;;;2.85;1.70;;;;;;;-145.69;79.20;70964.66;5114487;28;20201;-78
2022/08/13 06:45:37;;;;;;;2.20;1.80;;;;;;;-145.69;82.67;70936.78;5106972;28;20672;-78
2022/08/13 06:48:04;;;;;;;4.30;1.70;;;;;;;-145.69;78.36;70926.84;5094355;28;20298;-77
2022/08/13 06:50:33;;;;;;;2.40;1.77;;;;;;;-145.69;78.88;70867.16;5094213;28;20206;-78
2022/08/13 06:52:59;;;;;;;2.10;1.50;;;;;;;-145.69;75.45;70853.22;5094278;28;20209;-77
2022/08/13 06:55:26;;;;;;;4.05;1.75;;;;;;;-145.69;66.58;70765.69;5093391;28;20205;-77
2022/08/13 06:57:52;;;;;;;1.77;1.30;;;;;;;-145.69;63.77;70711.97;5102919;28;20217;-78
2022/08/13 07:00:20;;;;;;;3.90;1.48;;;;;;;-145.69;63.76;70686.09;5114605;28;20209;-76
2022/08/13 07:02:47;;;;;;;2.63;1.42;;;;;;;-145.69;61.29;70666.22;5114638;28;20292;-76
2022/08/13 07:05:14;;;;;;;2.42;1.40;;;;;;;-145.69;59.98;70644.31;5114304;28;20588;-77
2022/08/13 07:07:43;;;;;;;2.78;1.30;;;;;;;-145.69;58.64;70636.38;5114553;28;20201;-76
2022/08/13 07:10:11;;;;;;;2.20;1.45;;;;;;;-145.69;58.48;70618.47;5101152;28;20289;-77
2022/08/13 07:12:41;;;;;;;1.80;1.50;;;;;;;-145.69;57.72;70600.56;5094329;28;20193;-77
2022/08/13 07:15:14;;;;;;;2.72;1.70;;;;;;;-145.69;55.37;70592.59;5094303;28;20292;-78
2022/08/13 07:17:42;;;;;;;2.13;1.40;;;;;;;-145.69;56.02;70592.59;5081707;28;20234;-75
2022/08/13 07:20:10;;;;;;;1.90;1.48;;;;;;;-145.69;56.27;70592.59;5079702;28;20194;-76
2022/08/13 07:22:37;;;;;;;1.73;1.25;;;;;;;-145.69;54.91;70582.66;5112783;28;20254;-76
2022/08/13 07:25:03;;;;;;;4.47;1.30;;;;;;;-145.69;56.95;70546.84;5114196;28;20732;-77
2022/08/13 07:27:30;;;;;;;5.25;1.30;;;;;;;-145.69;53.35;70540.88;5113831;28;20197;-76
2022/08/13 07:29:59;;;;;;;1.73;1.30;;;;;;;-145.69;51.81;70546.84;5114121;28;20259;-76
2022/08/13 07:32:27;;;;;;;3.72;1.50;;;;;;;-145.69;54.11;70522.97;5073484;28;20286;-76
2022/08/13 07:34:58;;;;;;;2.60;1.30;;;;;;;-145.69;52.92;70505.06;5073525;28;20293;-77
2022/08/13 07:37:25;;;;;;;1.40;1.23;;;;;;;-145.69;52.60;70489.16;5073292;28;20696;-79
2022/08/13 07:39:51;;;;;;;2.53;1.13;;;;;;;-145.69;50.39;70473.22;5073620;28;20217;-75
2022/08/13 07:42:21;;;;;;;2.20;1.38;;;;;;;-145.69;49.66;70469.25;5082979;28;20201;-76
2022/08/13 07:44:50;;;;;;;4.32;1.23;;;;;;;-145.69;50.21;70475.22;5091846;28;20195;-77
2022/08/13 07:47:17;;;;;;;1.38;1.20;;;;;;;-145.69;49.35;70441.41;5073380;28;20293;-76
2022/08/13 07:49:46;;;;;;;4.40;1.20;;;;;;;-145.69;49.83;70423.50;5073129;28;20205;-76
2022/08/13 07:52:15;;;;;;;3.17;1.15;;;;;;;-145.69;49.48;70421.50;5073265;28;20199;-76
2022/08/13 07:54:42;;;;;;;1.88;1.10;;;;;;;-145.69;48.50;70419.53;5089627;28;20186;-77
2022/08/13 07:57:10;;;;;;;2.97;1.10;;;;;;;-145.69;48.53;70407.59;5113805;28;20232;-76
2022/08/13 07:59:37;;;;;;;1.85;1.30;;;;;;;-145.69;46.84;70385.69;5113785;28;20602;-75
2022/08/13 08:02:05;;;;;;;4.90;1.27;;;;;;;-145.69;47.09;70387.69;5113572;28;20839;-81
2022/08/13 08:04:34;;;;;;;2.40;1.20;;;;;;;-145.69;46.13;70391.66;5113188;28;20236;-76
2022/08/13 08:07:02;;;;;;;1.13;1.02;;;;;;;-145.69;48.69;70377.75;5073211;28;20205;-77
2022/08/13 08:09:31;;;;;;;1.85;1.00;;;;;;;-145.69;46.13;70369.78;5073118;28;20199;-78
2022/08/13 08:14:43;;;;;;;1.88;1.27;;;;;;;-145.69;47.32;70359.84;5113565;28;20200;-76
2022/08/13 08:17:11;;;;;;;7.07;1.27;;;;;;;-145.69;46.70;70332.00;5113485;28;20355;-78
2022/08/13 08:19:39;;;;;;;1.95;1.20;;;;;;;-145.69;44.53;70351.88;5094503;28;20202;-76
2022/08/13 08:22:07;;;;;;;1.80;1.10;;;;;;;-145.69;44.53;70355.88;5111793;28;20194;-75
2022/08/13 08:24:35;;;;;;;2.55;1.33;;;;;;;-145.69;44.22;70367.81;5113265;28;20197;-76
2022/08/13 08:27:04;;;;;;;2.22;1.10;;;;;;;-145.69;44.82;70353.88;5092055;28;20194;-78
2022/08/13 08:29:32;;;;;;;3.38;1.20;;;;;;;-145.69;46.53;70308.13;5092856;28;20198;-76
2022/08/13 08:31:59;;;;;;;1.25;0.88;;;;;;;-145.69;42.97;70292.19;5093078;28;20244;-77
2022/08/13 08:34:26;;;;;;;0.90;0.90;;;;;;;-145.69;43.79;70292.19;5094974;28;20194;-75
2022/08/13 08:36:55;;;;;;;1.42;1.13;;;;;;;-145.69;42.56;70312.09;5097232;28;20202;-82
2022/08/13 08:44:55;;;;;;;2.83;1.08;;;;;;;-145.69;41.36;70284.25;5117359;28;20617;-76
2022/08/13 08:47:27;;;;;;;3.53;1.00;;;;;;;-145.69;41.49;70310.09;5111684;28;20201;-78
2022/08/13 08:49:55;;;;;;;3.05;1.10;;;;;;;-145.69;41.30;70284.25;5096919;28;20202;-77
2022/08/13 08:53:19;;;;;;;2.15;1.10;;;;;;;-145.69;40.37;70272.31;5084348;28;20202;-82
2022/08/13 08:55:11;;;;;;;2.42;1.10;;;;;;;-145.69;39.59;70256.41;5116956;28;20197;-79
2022/08/13 08:57:44;;;;;;;1.75;1.08;;;;;;;-145.69;39.93;70256.41;5097356;28;20229;-76
2022/08/13 09:00:14;;;;;;;1.67;1.10;;;;;;;-145.69;39.63;70228.53;5096722;28;20263;-75
2022/08/13 09:02:41;;;;;;;1.85;0.90;;;;;;;-145.69;39.67;70224.56;5096346;28;20656;-76
2022/08/13 09:05:13;;;;;;;6.82;1.10;;;;;;;-145.69;39.69;70204.69;5102713;28;20248;-76
2022/08/13 09:07:41;;;;;;;1.30;0.90;;;;;;;-145.69;39.02;70204.69;5117034;28;20209;-76
2022/08/13 09:10:10;;;;;;;4.78;1.20;;;;;;;-145.69;38.86;70196.72;5116997;28;20269;-76
2022/08/13 09:12:41;;;;;;;2.03;1.10;;;;;;;-145.69;38.29;70109.19;5116999;28;20626;-77
2022/08/13 09:15:10;;;;;;;1.95;1.15;;;;;;;-145.69;37.85;70131.06;5098016;28;20210;-76
2022/08/13 09:17:38;;;;;;;2.60;1.10;;;;;;;-145.69;37.39;70133.06;5095067;28;20598;-75
2022/08/13 09:20:05;;;;;;;1.48;0.80;;;;;;;-145.69;37.17;70131.06;5096346;28;20295;-76
2022/08/13 09:22:32;;;;;;;1.73;0.98;;;;;;;-145.69;36.83;70150.97;5095208;28;20198;-76
2022/08/13 09:24:59;;;;;;;0.93;0.93;;;;;;;-145.69;37.68;70137.03;5096350;28;20198;-76
2022/08/13 09:27:28;;;;;;;2.15;1.05;;;;;;;-145.69;38.36;70156.94;5095966;28;20202;-75
2022/08/13 09:29:54;;;;;;;1.13;0.98;;;;;;;-145.69;37.57;70184.78;5107354;28;20205;-78
2022/08/13 09:32:24;;;;;;;1.00;0.90;;;;;;;-145.69;37.77;70143.00;5116235;28;20201;-74
2022/08/13 09:34:51;;;;;;;2.78;1.00;;;;;;;-145.69;36.50;70105.22;5116494;28;20204;-76
2022/08/13 09:37:19;;;;;;;2.90;1.30;;;;;;;-145.69;35.88;70095.28;5116390;28;20230;-75
2022/08/13 09:39:50;;;;;;;2.17;1.02;;;;;;;-145.69;35.70;70083.34;5116139;28;20206;-76
2022/08/13 09:42:23;;;;;;;1.10;1.00;;;;;;;-145.69;36.49;70073.38;5098695;28;20202;-76
2022/08/13 09:44:53;;;;;;;2.53;1.20;;;;;;;-145.69;35.97;70033.59;5091938;28;20653;-76
2022/08/13 09:47:19;;;;;;;1.42;1.20;;;;;;;-145.69;36.77;69960.00;5095356;28;20255;-75
2022/08/13 09:49:48;;;;;;;3.05;1.27;;;;;;;-145.69;35.05;69942.09;5095992;28;20206;-75
2022/08/13 09:52:15;;;;;;;0.80;0.80;;;;;;;-145.69;35.89;69946.09;5095739;28;20202;-76
2022/08/13 09:54:41;;;;;;;5.25;1.10;;;;;;;-145.69;34.43;69904.31;5115324;28;20194;-75
2022/08/13 09:57:08;;;;;;;1.52;0.90;;;;;;;-145.69;35.68;69896.34;5116043;27;20275;-75
2022/08/13 09:59:35;;;;;;;2.25;0.95;;;;;;;-145.69;33.85;69914.25;5116189;28;20225;-76
2022/08/13 10:02:05;;;;;;;2.47;1.10;;;;;;;-145.69;34.35;69906.28;5116131;28;20247;-76
2022/08/13 10:04:32;;;;;;;2.25;0.90;;;;;;;-145.69;35.47;69874.47;5115806;28;20269;-75
2022/08/13 10:07:01;;;;;;;2.15;1.05;;;;;;;-145.69;35.56;69914.25;5114090;28;20200;-76
2022/08/13 10:09:27;;;;;;;4.55;1.05;;;;;;;-145.69;35.85;69902.31;5115792;28;20209;-76
2022/08/13 10:11:54;;;;;;;1.38;1.05;;;;;;;-145.69;34.93;69910.28;5115850;28;20198;-76
2022/08/13 10:14:20;;;;;;;1.73;1.10;;;;;;;-145.69;34.77;69938.13;5115907;28;20201;-77
2022/08/13 10:16:47;;;;;;;8.68;1.05;;;;;;;-145.69;34.42;69963.97;5115687;28;20197;-75
2022/08/13 10:19:13;;;;;;;1.10;1.00;;;;;;;-145.69;34.67;69985.88;5097165;28;20233;-75
2022/08/13 10:21:40;;;;;;;1.33;1.00;;;;;;;-145.69;35.70;69991.84;5095221;28;20194;-76
2022/08/13 10:24:08;;;;;;;1.80;1.20;;;;;;;-145.69;35.06;69993.81;5095001;28;20198;-81
2022/08/13 10:26:36;;;;;;;2.05;1.10;;;;;;;-145.69;34.97;70001.78;5095214;28;20198;-76
2022/08/13 10:29:03;;;;;;;1.83;1.10;;;;;;;-145.69;34.55;69965.97;5095145;28;20561;-76
2022/08/13 10:31:30;;;;;;;4.80;1.20;;;;;;;-145.69;34.16;69910.28;5114226;28;20213;-77
2022/08/13 10:33:58;;;;;;;3.63;1.40;;;;;;;-145.69;33.97;69924.19;5115428;28;20541;-76
2022/08/13 10:36:25;;;;;;;1.65;0.88;;;;;;;-145.69;34.26;69910.28;5115097;27;20202;-76
2022/08/13 10:38:52;;;;;;;4.70;1.15;;;;;;;-145.69;33.78;69906.28;5115347;28;20254;-76
2022/08/13 10:41:20;;;;;;;1.48;0.95;;;;;;;-145.69;33.64;69910.28;5115300;28;20201;-76
2022/08/13 10:43:47;;;;;;;2.95;1.13;;;;;;;-145.69;34.55;69906.28;5095554;27;20680;-75
2022/08/13 10:46:16;;;;;;;2.53;0.90;;;;;;;-145.69;32.87;69950.06;5094692;28;20208;-76
2022/08/13 10:48:43;;;;;;;4.45;1.00;;;;;;;-145.69;34.72;69989.84;5094679;28;20205;-75
2022/08/13 10:51:09;;;;;;;1.58;0.88;;;;;;;-145.69;34.14;69948.06;5093558;28;20210;-76
2022/08/13 10:56:23;;;;;;;4.50;1.02;;;;;;;-145.69;31.89;69868.50;5114033;28;20212;-76
2022/08/13 10:58:50;;;;;;;2.38;1.20;;;;;;;-145.69;32.35;69840.66;5114776;28;20221;-76
2022/08/13 11:01:16;;;;;;;3.17;0.93;;;;;;;-145.69;32.41;69790.94;5114628;27;20201;-76
2022/08/13 11:03:44;;;;;;;1.27;0.90;;;;;;;-145.69;31.84;69747.16;5096547;28;20264;-75
2022/08/13 11:06:12;;;;;;;2.28;1.00;;;;;;;-145.69;31.35;69719.31;5094514;28;20202;-76
2022/08/13 11:08:39;;;;;;;1.73;0.98;;;;;;;-145.69;30.96;69747.16;5094261;28;20202;-76
2022/08/13 11:11:06;;;;;;;2.25;0.98;;;;;;;-145.69;31.42;69763.09;5094308;28;20194;-76
2022/08/13 11:13:36;;;;;;;3.35;1.08;;;;;;;-145.69;31.16;69767.06;5109552;28;20201;-78
2022/08/13 11:16:05;;;;;;;5.93;1.00;;;;;;;-145.69;31.22;69794.91;5114498;28;20233;-77
2022/08/13 11:18:32;;;;;;;2.22;1.15;;;;;;;-145.69;31.36;69777.00;5114160;28;20221;-77
2022/08/13 11:21:07;;;;;;;1.45;0.82;;;;;;;-145.69;31.20;69769.06;5114529;28;20586;-77
2022/08/13 11:23:34;;;;;;;3.08;0.90;;;;;;;-145.69;31.12;69812.81;5114136;28;20201;-77
2022/08/13 11:26:01;;;;;;;2.25;0.75;;;;;;;-145.69;32.37;69745.19;5073600;28;20611;-76
2022/08/13 11:28:27;;;;;;;1.38;0.98;;;;;;;-145.69;32.06;69763.09;5073329;28;20199;-76
2022/08/13 11:30:56;;;;;;;2.97;1.05;;;;;;;-145.69;31.00;69741.19;5073841;28;20205;-75
2022/08/13 11:33:25;;;;;;;1.15;0.90;;;;;;;-145.69;31.17;69731.25;5073319;28;20198;-76
2022/08/13 11:35:52;;;;;;;1.30;1.00;;;;;;;-145.69;30.92;69767.06;5076780;28;20199;-74
2022/08/13 11:38:20;;;;;;;1.15;0.82;;;;;;;-145.69;32.05;69751.16;5113678;28;20256;-75
2022/08/13 11:40:49;;;;;;;1.10;0.80;;;;;;;-145.69;31.24;69723.31;5094195;28;20611;-75
2022/08/13 11:43:15;;;;;;;5.00;1.00;;;;;;;-145.69;31.71;69731.25;5073307;28;20207;-74